< < Back
Terminal Aerodrome Forecast


Current Version              Previous Versions:   1  2  3  4  5  6  7  8  9  

Terminal Aerodrome Forecast

612
FTUS44 KMOB 221200 AAA
TAFMOB
TAF AMD
KMOB 221236Z 2213/2312 08008KT 1SM -RA BR VCSH OVC002
      TEMPO 2213/2217 1SM RA BR BKN001
     FM221800 15009KT P6SM -RA VCSH OVC010
     FM230000 17009KT 4SM BR VCSH OVC015
     FM230600 19008KT 2SM BR OVC004 PROB30 2306/2312 2SM TSRA BR
      BKN004CB=

Latest METAR

089
SAUS80 KWBC 230300 CCA
MTRMOB
METAR KMOB 230256Z 19007KT 6SM BR SCT006 BKN045 BKN055 18/18 A2978 RMK
AO2 SLP083 T01830183 50005


USA.gov is the U.S. government's official web portal to all federal, state and local government web resources and services.